sensor_id;sensor_type;location;lat;lon;timestamp;temperature;humidity
23532;DHT22;11943;52.270;20.978;2023-09-19T00:00:38;19.20;99.90
23532;DHT22;11943;52.270;20.978;2023-09-19T00:03:05;19.20;99.90
23532;DHT22;11943;52.270;20.978;2023-09-19T00:05:34;19.20;99.90
23532;DHT22;11943;52.270;20.978;2023-09-19T00:08:01;19.20;99.90
23532;DHT22;11943;52.270;20.978;2023-09-19T00:10:28;19.20;99.90
23532;DHT22;11943;52.270;20.978;2023-09-19T00:12:59;19.20;99.90
23532;DHT22;11943;52.270;20.978;2023-09-19T00:15:26;19.20;99.90
23532;DHT22;11943;52.270;20.978;2023-09-19T00:17:55;19.20;99.90
23532;DHT22;11943;52.270;20.978;2023-09-19T00:20:21;19.10;99.90
23532;DHT22;11943;52.270;20.978;2023-09-19T00:22:49;19.10;99.90
23532;DHT22;11943;52.270;20.978;2023-09-19T00:25:17;19.10;99.90
23532;DHT22;11943;52.270;20.978;2023-09-19T00:27:43;19.10;99.90
23532;DHT22;11943;52.270;20.978;2023-09-19T00:30:11;19.10;99.90
23532;DHT22;11943;52.270;20.978;2023-09-19T00:32:42;19.10;99.90
23532;DHT22;11943;52.270;20.978;2023-09-19T00:35:08;19.10;99.90
23532;DHT22;11943;52.270;20.978;2023-09-19T00:37:37;19.00;99.90
23532;DHT22;11943;52.270;20.978;2023-09-19T00:40:06;19.00;99.90
23532;DHT22;11943;52.270;20.978;2023-09-19T00:42:34;19.00;99.90
23532;DHT22;11943;52.270;20.978;2023-09-19T00:44:59;19.00;99.90
23532;DHT22;11943;52.270;20.978;2023-09-19T00:47:29;19.00;99.90
23532;DHT22;11943;52.270;20.978;2023-09-19T00:49:55;19.00;99.90
23532;DHT22;11943;52.270;20.978;2023-09-19T00:52:21;19.00;99.90
23532;DHT22;11943;52.270;20.978;2023-09-19T00:54:48;19.00;99.90
23532;DHT22;11943;52.270;20.978;2023-09-19T00:57:14;19.00;99.90
23532;DHT22;11943;52.270;20.978;2023-09-19T00:59:41;18.90;99.90
23532;DHT22;11943;52.270;20.978;2023-09-19T01:02:08;18.90;99.90
23532;DHT22;11943;52.270;20.978;2023-09-19T01:04:34;18.80;99.90
23532;DHT22;11943;52.270;20.978;2023-09-19T01:06:59;18.80;99.90
23532;DHT22;11943;52.270;20.978;2023-09-19T01:09:25;18.80;99.90
23532;DHT22;11943;52.270;20.978;2023-09-19T01:11:53;18.80;99.90
23532;DHT22;11943;52.270;20.978;2023-09-19T01:17:24;18.70;99.90
23532;DHT22;11943;52.270;20.978;2023-09-19T01:26:00;18.70;99.90
23532;DHT22;11943;52.270;20.978;2023-09-19T01:28:45;18.70;99.90
23532;DHT22;11943;52.270;20.978;2023-09-19T01:31:20;18.70;99.90
23532;DHT22;11943;52.270;20.978;2023-09-19T01:33:56;18.70;99.90
23532;DHT22;11943;52.270;20.978;2023-09-19T01:36:35;18.60;99.90
23532;DHT22;11943;52.270;20.978;2023-09-19T01:39:12;18.70;99.90
23532;DHT22;11943;52.270;20.978;2023-09-19T01:44:18;18.70;99.90
23532;DHT22;11943;52.270;20.978;2023-09-19T01:46:46;18.70;99.90
23532;DHT22;11943;52.270;20.978;2023-09-19T01:49:27;18.80;99.90
23532;DHT22;11943;52.270;20.978;2023-09-19T01:52:14;18.80;99.90
23532;DHT22;11943;52.270;20.978;2023-09-19T01:54:52;18.80;99.90
23532;DHT22;11943;52.270;20.978;2023-09-19T01:57:28;18.80;99.90
23532;DHT22;11943;52.270;20.978;2023-09-19T02:00:09;18.80;99.90
23532;DHT22;11943;52.270;20.978;2023-09-19T02:02:38;18.80;99.90
23532;DHT22;11943;52.270;20.978;2023-09-19T02:05:05;18.80;99.90
23532;DHT22;11943;52.270;20.978;2023-09-19T02:07:32;18.70;99.90
23532;DHT22;11943;52.270;20.978;2023-09-19T02:09:58;18.70;99.90
23532;DHT22;11943;52.270;20.978;2023-09-19T02:12:26;18.70;99.90
23532;DHT22;11943;52.270;20.978;2023-09-19T02:14:51;18.60;99.90
23532;DHT22;11943;52.270;20.978;2023-09-19T02:17:17;18.60;99.90
23532;DHT22;11943;52.270;20.978;2023-09-19T02:19:43;18.60;99.90
23532;DHT22;11943;52.270;20.978;2023-09-19T02:22:08;18.60;99.90
23532;DHT22;11943;52.270;20.978;2023-09-19T02:24:38;18.60;99.90
23532;DHT22;11943;52.270;20.978;2023-09-19T02:27:04;18.60;99.90
23532;DHT22;11943;52.270;20.978;2023-09-19T02:29:31;18.60;99.90
23532;DHT22;11943;52.270;20.978;2023-09-19T02:31:56;18.60;99.90
23532;DHT22;11943;52.270;20.978;2023-09-19T02:34:22;18.60;99.90
23532;DHT22;11943;52.270;20.978;2023-09-19T02:36:48;18.60;99.90
23532;DHT22;11943;52.270;20.978;2023-09-19T02:39:14;18.50;99.90
23532;DHT22;11943;52.270;20.978;2023-09-19T02:41:39;18.50;99.90
23532;DHT22;11943;52.270;20.978;2023-09-19T02:44:07;18.50;99.90
23532;DHT22;11943;52.270;20.978;2023-09-19T02:46:33;18.50;99.90
23532;DHT22;11943;52.270;20.978;2023-09-19T02:48:59;18.40;99.90
23532;DHT22;11943;52.270;20.978;2023-09-19T02:51:24;18.30;99.90
23532;DHT22;11943;52.270;20.978;2023-09-19T02:53:50;18.30;99.90
23532;DHT22;11943;52.270;20.978;2023-09-19T02:56:18;18.20;99.90
23532;DHT22;11943;52.270;20.978;2023-09-19T02:58:44;18.20;99.90
23532;DHT22;11943;52.270;20.978;2023-09-19T03:01:12;18.20;99.90
23532;DHT22;11943;52.270;20.978;2023-09-19T03:03:38;18.20;99.90
23532;DHT22;11943;52.270;20.978;2023-09-19T03:06:05;18.20;99.90
23532;DHT22;11943;52.270;20.978;2023-09-19T03:08:34;18.20;99.90
23532;DHT22;11943;52.270;20.978;2023-09-19T03:11:05;18.20;99.90
23532;DHT22;11943;52.270;20.978;2023-09-19T03:13:35;18.20;99.90
23532;DHT22;11943;52.270;20.978;2023-09-19T03:16:03;18.10;99.90
23532;DHT22;11943;52.270;20.978;2023-09-19T03:18:34;18.10;99.90
23532;DHT22;11943;52.270;20.978;2023-09-19T03:21:00;18.10;99.90
23532;DHT22;11943;52.270;20.978;2023-09-19T03:23:27;18.10;99.90
23532;DHT22;11943;52.270;20.978;2023-09-19T03:25:55;18.10;99.90
23532;DHT22;11943;52.270;20.978;2023-09-19T03:28:22;18.10;99.90
23532;DHT22;11943;52.270;20.978;2023-09-19T03:31:04;18.10;99.90
23532;DHT22;11943;52.270;20.978;2023-09-19T03:33:30;18.10;99.90
23532;DHT22;11943;52.270;20.978;2023-09-19T03:35:58;18.10;99.90
23532;DHT22;11943;52.270;20.978;2023-09-19T03:38:25;18.10;99.90
23532;DHT22;11943;52.270;20.978;2023-09-19T03:40:51;18.10;99.90
23532;DHT22;11943;52.270;20.978;2023-09-19T03:43:16;18.10;99.90
23532;DHT22;11943;52.270;20.978;2023-09-19T03:45:42;18.20;99.90
23532;DHT22;11943;52.270;20.978;2023-09-19T03:48:11;18.20;99.90
23532;DHT22;11943;52.270;20.978;2023-09-19T03:50:37;18.20;99.90
23532;DHT22;11943;52.270;20.978;2023-09-19T03:53:03;18.20;99.90
23532;DHT22;11943;52.270;20.978;2023-09-19T03:55:29;18.20;99.90
23532;DHT22;11943;52.270;20.978;2023-09-19T03:57:57;18.20;99.90
23532;DHT22;11943;52.270;20.978;2023-09-19T04:00:23;18.20;99.90
23532;DHT22;11943;52.270;20.978;2023-09-19T04:02:52;18.20;99.90
23532;DHT22;11943;52.270;20.978;2023-09-19T04:05:18;18.20;99.90
23532;DHT22;11943;52.270;20.978;2023-09-19T04:07:43;18.20;99.90
23532;DHT22;11943;52.270;20.978;2023-09-19T04:10:09;18.30;99.90
23532;DHT22;11943;52.270;20.978;2023-09-19T04:12:37;18.30;99.90
23532;DHT22;11943;52.270;20.978;2023-09-19T04:15:04;18.30;99.90
23532;DHT22;11943;52.270;20.978;2023-09-19T04:17:30;18.40;99.90
23532;DHT22;11943;52.270;20.978;2023-09-19T04:19:58;18.40;99.90
23532;DHT22;11943;52.270;20.978;2023-09-19T04:22:24;18.30;99.90
23532;DHT22;11943;52.270;20.978;2023-09-19T04:24:50;18.30;99.90
23532;DHT22;11943;52.270;20.978;2023-09-19T04:27:15;18.30;99.90
23532;DHT22;11943;52.270;20.978;2023-09-19T04:29:41;18.30;99.90
23532;DHT22;11943;52.270;20.978;2023-09-19T04:32:07;18.30;99.90
23532;DHT22;11943;52.270;20.978;2023-09-19T04:34:33;18.30;99.90
23532;DHT22;11943;52.270;20.978;2023-09-19T04:37:04;18.30;99.90
23532;DHT22;11943;52.270;20.978;2023-09-19T04:39:29;18.20;99.90
23532;DHT22;11943;52.270;20.978;2023-09-19T04:41:55;18.20;99.90
23532;DHT22;11943;52.270;20.978;2023-09-19T04:44:22;18.20;99.90
23532;DHT22;11943;52.270;20.978;2023-09-19T04:46:48;18.20;99.90
23532;DHT22;11943;52.270;20.978;2023-09-19T04:49:13;18.20;99.90
23532;DHT22;11943;52.270;20.978;2023-09-19T04:51:39;18.20;99.90
23532;DHT22;11943;52.270;20.978;2023-09-19T04:54:05;18.20;99.90
23532;DHT22;11943;52.270;20.978;2023-09-19T04:56:32;18.20;99.90
23532;DHT22;11943;52.270;20.978;2023-09-19T04:58:58;18.30;99.90
23532;DHT22;11943;52.270;20.978;2023-09-19T05:01:25;18.30;99.90
23532;DHT22;11943;52.270;20.978;2023-09-19T05:03:50;18.40;99.90
23532;DHT22;11943;52.270;20.978;2023-09-19T05:06:19;18.40;99.90
23532;DHT22;11943;52.270;20.978;2023-09-19T05:08:49;18.50;99.90
23532;DHT22;11943;52.270;20.978;2023-09-19T05:11:21;18.50;99.90
23532;DHT22;11943;52.270;20.978;2023-09-19T05:13:48;18.50;99.90
23532;DHT22;11943;52.270;20.978;2023-09-19T05:16:16;18.60;99.90
23532;DHT22;11943;52.270;20.978;2023-09-19T05:18:41;18.60;99.90
23532;DHT22;11943;52.270;20.978;2023-09-19T05:21:07;18.70;99.90
23532;DHT22;11943;52.270;20.978;2023-09-19T05:23:33;18.80;99.90
23532;DHT22;11943;52.270;20.978;2023-09-19T05:25:59;18.80;99.90
23532;DHT22;11943;52.270;20.978;2023-09-19T05:28:25;18.90;99.90
23532;DHT22;11943;52.270;20.978;2023-09-19T05:30:52;19.00;99.90
23532;DHT22;11943;52.270;20.978;2023-09-19T05:33:19;19.00;99.90
23532;DHT22;11943;52.270;20.978;2023-09-19T05:35:45;19.00;99.90
23532;DHT22;11943;52.270;20.978;2023-09-19T05:38:12;19.00;99.90
23532;DHT22;11943;52.270;20.978;2023-09-19T05:40:39;19.00;99.90
23532;DHT22;11943;52.270;20.978;2023-09-19T05:43:10;19.00;99.90
23532;DHT22;11943;52.270;20.978;2023-09-19T05:45:36;19.00;99.90
23532;DHT22;11943;52.270;20.978;2023-09-19T05:48:11;19.10;99.90
23532;DHT22;11943;52.270;20.978;2023-09-19T05:50:39;19.10;99.90
23532;DHT22;11943;52.270;20.978;2023-09-19T05:53:05;19.10;99.90
23532;DHT22;11943;52.270;20.978;2023-09-19T05:55:31;19.10;99.90
23532;DHT22;11943;52.270;20.978;2023-09-19T05:57:57;19.10;99.90
23532;DHT22;11943;52.270;20.978;2023-09-19T06:00:24;19.10;99.90
23532;DHT22;11943;52.270;20.978;2023-09-19T06:02:53;19.20;99.90
23532;DHT22;11943;52.270;20.978;2023-09-19T06:05:21;19.30;99.90
23532;DHT22;11943;52.270;20.978;2023-09-19T06:07:46;19.40;99.90
23532;DHT22;11943;52.270;20.978;2023-09-19T06:10:16;19.40;99.90
23532;DHT22;11943;52.270;20.978;2023-09-19T06:12:43;19.40;99.90
23532;DHT22;11943;52.270;20.978;2023-09-19T06:15:13;19.50;99.90
23532;DHT22;11943;52.270;20.978;2023-09-19T06:17:48;19.60;99.90
23532;DHT22;11943;52.270;20.978;2023-09-19T06:20:14;19.70;99.90
23532;DHT22;11943;52.270;20.978;2023-09-19T06:22:44;19.60;99.90
23532;DHT22;11943;52.270;20.978;2023-09-19T06:25:12;19.50;99.90
23532;DHT22;11943;52.270;20.978;2023-09-19T06:27:48;19.60;99.90
23532;DHT22;11943;52.270;20.978;2023-09-19T06:30:14;19.50;99.90
23532;DHT22;11943;52.270;20.978;2023-09-19T06:32:41;19.40;99.90
23532;DHT22;11943;52.270;20.978;2023-09-19T06:35:14;19.40;99.90
23532;DHT22;11943;52.270;20.978;2023-09-19T06:37:41;19.50;99.90
23532;DHT22;11943;52.270;20.978;2023-09-19T06:40:08;19.40;99.90
23532;DHT22;11943;52.270;20.978;2023-09-19T06:42:35;19.40;99.90
23532;DHT22;11943;52.270;20.978;2023-09-19T06:45:04;19.50;99.90
23532;DHT22;11943;52.270;20.978;2023-09-19T06:47:30;19.60;99.90
23532;DHT22;11943;52.270;20.978;2023-09-19T06:49:55;19.70;99.90
23532;DHT22;11943;52.270;20.978;2023-09-19T06:52:21;19.90;99.90
23532;DHT22;11943;52.270;20.978;2023-09-19T06:54:48;20.00;99.90
23532;DHT22;11943;52.270;20.978;2023-09-19T06:57:16;20.30;99.90
23532;DHT22;11943;52.270;20.978;2023-09-19T06:59:41;20.40;99.90
23532;DHT22;11943;52.270;20.978;2023-09-19T07:02:07;20.60;99.90
23532;DHT22;11943;52.270;20.978;2023-09-19T07:04:33;20.70;99.90
23532;DHT22;11943;52.270;20.978;2023-09-19T07:06:59;20.90;99.90
23532;DHT22;11943;52.270;20.978;2023-09-19T07:09:25;21.20;99.90
23532;DHT22;11943;52.270;20.978;2023-09-19T07:11:52;21.30;99.90
23532;DHT22;11943;52.270;20.978;2023-09-19T07:14:18;21.60;99.90
23532;DHT22;11943;52.270;20.978;2023-09-19T07:16:44;21.60;99.90
23532;DHT22;11943;52.270;20.978;2023-09-19T07:19:10;21.60;99.90
23532;DHT22;11943;52.270;20.978;2023-09-19T07:21:36;21.50;99.90
23532;DHT22;11943;52.270;20.978;2023-09-19T07:24:04;21.50;99.90
23532;DHT22;11943;52.270;20.978;2023-09-19T07:26:30;21.40;99.90
23532;DHT22;11943;52.270;20.978;2023-09-19T07:28:56;21.40;99.90
23532;DHT22;11943;52.270;20.978;2023-09-19T07:31:23;21.30;99.90
23532;DHT22;11943;52.270;20.978;2023-09-19T07:33:50;21.40;99.90
23532;DHT22;11943;52.270;20.978;2023-09-19T07:36:17;21.50;99.90
23532;DHT22;11943;52.270;20.978;2023-09-19T07:38:43;21.60;99.90
23532;DHT22;11943;52.270;20.978;2023-09-19T07:41:09;21.70;99.90
23532;DHT22;11943;52.270;20.978;2023-09-19T07:43:37;21.90;99.90
23532;DHT22;11943;52.270;20.978;2023-09-19T07:46:08;21.90;99.90
23532;DHT22;11943;52.270;20.978;2023-09-19T07:48:37;21.90;99.90
23532;DHT22;11943;52.270;20.978;2023-09-19T07:51:07;21.80;99.90
23532;DHT22;11943;52.270;20.978;2023-09-19T07:53:33;21.70;99.90
23532;DHT22;11943;52.270;20.978;2023-09-19T07:56:07;21.70;99.90
23532;DHT22;11943;52.270;20.978;2023-09-19T07:58:34;21.60;99.90
23532;DHT22;11943;52.270;20.978;2023-09-19T08:01:09;21.50;99.90
23532;DHT22;11943;52.270;20.978;2023-09-19T08:03:36;21.30;99.90
23532;DHT22;11943;52.270;20.978;2023-09-19T08:06:16;21.30;99.90
23532;DHT22;11943;52.270;20.978;2023-09-19T08:08:42;21.20;99.90
23532;DHT22;11943;52.270;20.978;2023-09-19T08:11:07;21.10;99.90
23532;DHT22;11943;52.270;20.978;2023-09-19T08:13:41;21.10;99.90
23532;DHT22;11943;52.270;20.978;2023-09-19T08:16:12;21.10;99.90
23532;DHT22;11943;52.270;20.978;2023-09-19T08:18:40;21.20;99.90
23532;DHT22;11943;52.270;20.978;2023-09-19T08:21:06;21.30;99.90
23532;DHT22;11943;52.270;20.978;2023-09-19T08:23:39;21.40;99.90
23532;DHT22;11943;52.270;20.978;2023-09-19T08:26:06;21.40;99.90
23532;DHT22;11943;52.270;20.978;2023-09-19T08:28:36;21.30;99.90
23532;DHT22;11943;52.270;20.978;2023-09-19T08:31:03;21.30;99.90
23532;DHT22;11943;52.270;20.978;2023-09-19T08:33:32;21.20;99.90
23532;DHT22;11943;52.270;20.978;2023-09-19T08:35:59;21.20;99.90
23532;DHT22;11943;52.270;20.978;2023-09-19T08:38:24;21.20;99.90
23532;DHT22;11943;52.270;20.978;2023-09-19T08:40:57;21.30;99.90
23532;DHT22;11943;52.270;20.978;2023-09-19T08:43:23;21.40;99.90
23532;DHT22;11943;52.270;20.978;2023-09-19T08:45:49;21.30;99.90
23532;DHT22;11943;52.270;20.978;2023-09-19T08:48:27;21.20;99.90
23532;DHT22;11943;52.270;20.978;2023-09-19T08:51:26;21.10;99.90
23532;DHT22;11943;52.270;20.978;2023-09-19T08:56:26;21.10;99.90
23532;DHT22;11943;52.270;20.978;2023-09-19T08:58:59;21.10;99.90
23532;DHT22;11943;52.270;20.978;2023-09-19T09:01:29;21.20;99.90
23532;DHT22;11943;52.270;20.978;2023-09-19T09:03:55;21.20;99.90
23532;DHT22;11943;52.270;20.978;2023-09-19T09:06:23;21.10;99.90
23532;DHT22;11943;52.270;20.978;2023-09-19T09:08:50;21.20;99.90
23532;DHT22;11943;52.270;20.978;2023-09-19T09:11:16;21.10;99.90
23532;DHT22;11943;52.270;20.978;2023-09-19T09:13:44;21.00;99.90
23532;DHT22;11943;52.270;20.978;2023-09-19T09:16:10;21.00;99.90
23532;DHT22;11943;52.270;20.978;2023-09-19T09:18:36;20.90;99.90
23532;DHT22;11943;52.270;20.978;2023-09-19T09:21:03;20.80;99.90
23532;DHT22;11943;52.270;20.978;2023-09-19T09:23:30;20.70;99.90
23532;DHT22;11943;52.270;20.978;2023-09-19T09:25:57;20.50;99.90
23532;DHT22;11943;52.270;20.978;2023-09-19T09:28:29;20.40;99.90
23532;DHT22;11943;52.270;20.978;2023-09-19T09:30:57;20.20;99.90
23532;DHT22;11943;52.270;20.978;2023-09-19T09:33:23;20.10;99.90
23532;DHT22;11943;52.270;20.978;2023-09-19T09:35:54;19.90;99.90
23532;DHT22;11943;52.270;20.978;2023-09-19T09:38:24;19.80;99.90
23532;DHT22;11943;52.270;20.978;2023-09-19T09:40:54;19.70;99.90
23532;DHT22;11943;52.270;20.978;2023-09-19T09:43:33;19.50;99.90
23532;DHT22;11943;52.270;20.978;2023-09-19T09:46:11;19.30;99.90
23532;DHT22;11943;52.270;20.978;2023-09-19T09:49:03;19.10;99.90
23532;DHT22;11943;52.270;20.978;2023-09-19T09:51:51;19.10;99.90
23532;DHT22;11943;52.270;20.978;2023-09-19T09:54:28;19.00;99.90
23532;DHT22;11943;52.270;20.978;2023-09-19T09:57:00;18.90;99.90
23532;DHT22;11943;52.270;20.978;2023-09-19T09:59:55;18.70;99.90
23532;DHT22;11943;52.270;20.978;2023-09-19T10:02:35;18.60;99.90
23532;DHT22;11943;52.270;20.978;2023-09-19T10:05:21;18.50;99.90
23532;DHT22;11943;52.270;20.978;2023-09-19T10:07:52;18.40;99.90
23532;DHT22;11943;52.270;20.978;2023-09-19T10:10:36;18.40;99.90
23532;DHT22;11943;52.270;20.978;2023-09-19T10:13:09;18.40;99.90
23532;DHT22;11943;52.270;20.978;2023-09-19T10:15:39;18.40;99.90
23532;DHT22;11943;52.270;20.978;2023-09-19T10:18:11;18.50;99.90
23532;DHT22;11943;52.270;20.978;2023-09-19T10:20:45;18.60;99.90
23532;DHT22;11943;52.270;20.978;2023-09-19T10:23:12;18.70;99.90
23532;DHT22;11943;52.270;20.978;2023-09-19T10:25:42;18.90;99.90
23532;DHT22;11943;52.270;20.978;2023-09-19T10:28:10;18.90;99.90
23532;DHT22;11943;52.270;20.978;2023-09-19T10:30:43;19.00;99.90
23532;DHT22;11943;52.270;20.978;2023-09-19T10:33:11;19.00;99.90
23532;DHT22;11943;52.270;20.978;2023-09-19T10:35:49;19.00;99.90
23532;DHT22;11943;52.270;20.978;2023-09-19T10:38:22;19.20;99.90
23532;DHT22;11943;52.270;20.978;2023-09-19T10:40:53;19.30;99.90
23532;DHT22;11943;52.270;20.978;2023-09-19T10:43:20;19.30;99.90
23532;DHT22;11943;52.270;20.978;2023-09-19T10:45:47;19.50;99.90
23532;DHT22;11943;52.270;20.978;2023-09-19T10:48:15;19.70;99.90
23532;DHT22;11943;52.270;20.978;2023-09-19T10:50:53;19.80;99.90
23532;DHT22;11943;52.270;20.978;2023-09-19T10:53:20;19.80;99.90
23532;DHT22;11943;52.270;20.978;2023-09-19T10:55:58;19.80;99.90
23532;DHT22;11943;52.270;20.978;2023-09-19T10:58:35;19.70;99.90
23532;DHT22;11943;52.270;20.978;2023-09-19T11:01:04;19.60;99.90
23532;DHT22;11943;52.270;20.978;2023-09-19T11:03:38;19.60;99.90
23532;DHT22;11943;52.270;20.978;2023-09-19T11:06:18;19.70;99.90
23532;DHT22;11943;52.270;20.978;2023-09-19T11:11:40;19.70;99.90
23532;DHT22;11943;52.270;20.978;2023-09-19T11:30:47;19.80;99.90
23532;DHT22;11943;52.270;20.978;2023-09-19T11:33:19;19.90;99.90
23532;DHT22;11943;52.270;20.978;2023-09-19T11:46:53;19.90;99.90
23532;DHT22;11943;52.270;20.978;2023-09-19T11:49:26;19.80;99.90
23532;DHT22;11943;52.270;20.978;2023-09-19T11:51:58;19.70;99.90
23532;DHT22;11943;52.270;20.978;2023-09-19T11:54:27;19.70;99.90
23532;DHT22;11943;52.270;20.978;2023-09-19T11:56:57;19.60;99.90
23532;DHT22;11943;52.270;20.978;2023-09-19T11:59:24;19.60;99.90
23532;DHT22;11943;52.270;20.978;2023-09-19T12:01:54;19.60;99.90
23532;DHT22;11943;52.270;20.978;2023-09-19T12:04:37;19.70;99.90
23532;DHT22;11943;52.270;20.978;2023-09-19T12:07:14;19.80;99.90
23532;DHT22;11943;52.270;20.978;2023-09-19T12:10:02;19.80;99.90
23532;DHT22;11943;52.270;20.978;2023-09-19T12:12:29;19.90;99.90
23532;DHT22;11943;52.270;20.978;2023-09-19T12:14:56;20.00;99.90
23532;DHT22;11943;52.270;20.978;2023-09-19T12:17:54;20.00;99.90
23532;DHT22;11943;52.270;20.978;2023-09-19T12:20:20;20.00;99.90
23532;DHT22;11943;52.270;20.978;2023-09-19T12:22:47;20.00;99.90
23532;DHT22;11943;52.270;20.978;2023-09-19T12:25:14;20.00;99.90
23532;DHT22;11943;52.270;20.978;2023-09-19T12:27:46;20.00;99.90
23532;DHT22;11943;52.270;20.978;2023-09-19T12:30:13;20.10;99.90
23532;DHT22;11943;52.270;20.978;2023-09-19T12:32:48;20.00;99.90
23532;DHT22;11943;52.270;20.978;2023-09-19T12:35:31;20.00;99.90
23532;DHT22;11943;52.270;20.978;2023-09-19T12:38:00;19.90;99.90
23532;DHT22;11943;52.270;20.978;2023-09-19T12:40:26;19.90;99.90
23532;DHT22;11943;52.270;20.978;2023-09-19T12:42:55;19.80;99.90
23532;DHT22;11943;52.270;20.978;2023-09-19T12:45:21;19.80;99.90
23532;DHT22;11943;52.270;20.978;2023-09-19T12:48:22;19.80;99.90
23532;DHT22;11943;52.270;20.978;2023-09-19T12:51:06;19.70;99.90
23532;DHT22;11943;52.270;20.978;2023-09-19T12:53:37;19.80;99.90
23532;DHT22;11943;52.270;20.978;2023-09-19T12:56:09;19.70;99.90
23532;DHT22;11943;52.270;20.978;2023-09-19T12:58:51;19.70;99.90
23532;DHT22;11943;52.270;20.978;2023-09-19T13:01:19;19.70;99.90
23532;DHT22;11943;52.270;20.978;2023-09-19T13:03:45;19.70;99.90
23532;DHT22;11943;52.270;20.978;2023-09-19T13:06:11;19.80;99.90
23532;DHT22;11943;52.270;20.978;2023-09-19T13:08:37;19.80;99.90
23532;DHT22;11943;52.270;20.978;2023-09-19T13:11:15;19.80;99.90
23532;DHT22;11943;52.270;20.978;2023-09-19T13:13:45;19.80;99.90
23532;DHT22;11943;52.270;20.978;2023-09-19T13:16:16;19.80;99.90
23532;DHT22;11943;52.270;20.978;2023-09-19T13:18:48;19.80;99.90
23532;DHT22;11943;52.270;20.978;2023-09-19T13:21:17;19.80;99.90
23532;DHT22;11943;52.270;20.978;2023-09-19T13:23:53;19.90;99.90
23532;DHT22;11943;52.270;20.978;2023-09-19T13:26:27;19.90;99.90
23532;DHT22;11943;52.270;20.978;2023-09-19T13:28:56;19.80;99.90
23532;DHT22;11943;52.270;20.978;2023-09-19T13:31:22;19.90;99.90
23532;DHT22;11943;52.270;20.978;2023-09-19T13:33:49;19.90;99.90
23532;DHT22;11943;52.270;20.978;2023-09-19T13:36:15;20.00;99.90
23532;DHT22;11943;52.270;20.978;2023-09-19T13:38:41;20.00;99.90
23532;DHT22;11943;52.270;20.978;2023-09-19T13:41:10;20.00;99.90
23532;DHT22;11943;52.270;20.978;2023-09-19T13:43:37;20.00;99.90
23532;DHT22;11943;52.270;20.978;2023-09-19T13:46:04;20.00;99.90
23532;DHT22;11943;52.270;20.978;2023-09-19T13:48:30;20.10;99.90
23532;DHT22;11943;52.270;20.978;2023-09-19T13:50:56;20.20;99.90
23532;DHT22;11943;52.270;20.978;2023-09-19T13:53:22;20.10;99.90
23532;DHT22;11943;52.270;20.978;2023-09-19T13:55:47;20.20;99.90
23532;DHT22;11943;52.270;20.978;2023-09-19T13:58:16;20.20;99.90
23532;DHT22;11943;52.270;20.978;2023-09-19T14:00:42;20.20;99.90
23532;DHT22;11943;52.270;20.978;2023-09-19T14:03:08;20.20;99.90
23532;DHT22;11943;52.270;20.978;2023-09-19T14:05:36;20.20;99.90
23532;DHT22;11943;52.270;20.978;2023-09-19T14:08:01;20.20;99.90
23532;DHT22;11943;52.270;20.978;2023-09-19T14:10:28;20.20;99.90
23532;DHT22;11943;52.270;20.978;2023-09-19T14:12:57;20.20;99.90
23532;DHT22;11943;52.270;20.978;2023-09-19T14:15:25;20.20;99.90
23532;DHT22;11943;52.270;20.978;2023-09-19T14:17:56;20.20;99.90
23532;DHT22;11943;52.270;20.978;2023-09-19T14:20:22;20.20;99.90
23532;DHT22;11943;52.270;20.978;2023-09-19T14:22:48;20.20;99.90
23532;DHT22;11943;52.270;20.978;2023-09-19T14:25:14;20.10;99.90
23532;DHT22;11943;52.270;20.978;2023-09-19T14:27:39;20.10;99.90
23532;DHT22;11943;52.270;20.978;2023-09-19T14:30:07;20.10;99.90
23532;DHT22;11943;52.270;20.978;2023-09-19T14:32:33;20.10;99.90
23532;DHT22;11943;52.270;20.978;2023-09-19T14:34:59;20.00;99.90
23532;DHT22;11943;52.270;20.978;2023-09-19T14:37:24;19.90;99.90
23532;DHT22;11943;52.270;20.978;2023-09-19T14:39:50;20.00;99.90
23532;DHT22;11943;52.270;20.978;2023-09-19T14:42:15;19.90;99.90
23532;DHT22;11943;52.270;20.978;2023-09-19T14:44:43;20.00;99.90
23532;DHT22;11943;52.270;20.978;2023-09-19T14:47:09;20.00;99.90
23532;DHT22;11943;52.270;20.978;2023-09-19T14:49:38;20.00;99.90
23532;DHT22;11943;52.270;20.978;2023-09-19T14:52:07;20.00;99.90
23532;DHT22;11943;52.270;20.978;2023-09-19T14:54:32;20.00;99.90
23532;DHT22;11943;52.270;20.978;2023-09-19T14:56:59;20.00;99.90
23532;DHT22;11943;52.270;20.978;2023-09-19T14:59:31;20.10;99.90
23532;DHT22;11943;52.270;20.978;2023-09-19T15:01:57;20.00;99.90
23532;DHT22;11943;52.270;20.978;2023-09-19T15:04:24;20.10;99.90
23532;DHT22;11943;52.270;20.978;2023-09-19T15:06:50;20.00;99.90
23532;DHT22;11943;52.270;20.978;2023-09-19T15:09:16;20.00;99.90
23532;DHT22;11943;52.270;20.978;2023-09-19T15:11:44;20.00;99.90
23532;DHT22;11943;52.270;20.978;2023-09-19T15:14:10;19.90;99.90
23532;DHT22;11943;52.270;20.978;2023-09-19T15:16:35;20.00;99.90
23532;DHT22;11943;52.270;20.978;2023-09-19T15:19:01;19.90;99.90
23532;DHT22;11943;52.270;20.978;2023-09-19T15:21:27;20.00;99.90
23532;DHT22;11943;52.270;20.978;2023-09-19T15:23:52;20.00;99.90
23532;DHT22;11943;52.270;20.978;2023-09-19T15:26:18;19.90;99.90
23532;DHT22;11943;52.270;20.978;2023-09-19T15:28:47;19.90;99.90
23532;DHT22;11943;52.270;20.978;2023-09-19T15:31:13;19.90;99.90
23532;DHT22;11943;52.270;20.978;2023-09-19T15:33:39;19.90;99.90
23532;DHT22;11943;52.270;20.978;2023-09-19T15:36:06;19.90;99.90
23532;DHT22;11943;52.270;20.978;2023-09-19T15:38:57;19.90;99.90
23532;DHT22;11943;52.270;20.978;2023-09-19T15:41:34;20.00;99.90
23532;DHT22;11943;52.270;20.978;2023-09-19T15:44:01;20.00;99.90
23532;DHT22;11943;52.270;20.978;2023-09-19T15:46:31;20.10;99.90
23532;DHT22;11943;52.270;20.978;2023-09-19T15:48:58;19.90;99.90
23532;DHT22;11943;52.270;20.978;2023-09-19T15:51:26;20.00;99.90
23532;DHT22;11943;52.270;20.978;2023-09-19T15:53:53;20.10;99.90
23532;DHT22;11943;52.270;20.978;2023-09-19T15:56:20;20.10;99.90
23532;DHT22;11943;52.270;20.978;2023-09-19T15:58:54;20.10;99.90
23532;DHT22;11943;52.270;20.978;2023-09-19T16:01:21;20.10;99.90
23532;DHT22;11943;52.270;20.978;2023-09-19T16:03:48;20.00;99.90
23532;DHT22;11943;52.270;20.978;2023-09-19T16:06:17;20.00;99.90
23532;DHT22;11943;52.270;20.978;2023-09-19T16:08:47;20.00;99.90
23532;DHT22;11943;52.270;20.978;2023-09-19T16:11:13;19.90;99.90